Clever, Missouri
Current Conditions -  °F | °C
As of 12:52 AM on Friday 19 Dec 2014 (Local Time) from KSGF Reporting Station
Haze Haze  
Wind Chill:   Ceiling: 300
Heat Index:   Visibility: 3mi
Dew Point:   Wind: 5mph
Humidity: 96%   Direction: 120°ESE
Pressure: 30.2"   Gusts: NA
Location:  37.03°N, 93.47°W
Report Text: KSGF 190652Z 12004KT 3SM BR OVC003 03/02 A3020 RMK AO2 SLP235 T00280022
Loading
Personal Weather Stations






























Interactive Weather Map New forecast layout! Learn more

10-Day Weather Forecast

Advertisements
Track Severe Weather on mobile